sensor_id;sensor_type;location;lat;lon;timestamp;P1;durP1;ratioP1;P2;durP2;ratioP2
68800;SDS011;55784;50.734;7.086;2023-09-08T00:02:05;10.90;;;5.10;;
68800;SDS011;55784;50.734;7.086;2023-09-08T00:04:30;11.97;;;5.37;;
68800;SDS011;55784;50.734;7.086;2023-09-08T00:06:57;11.07;;;5.20;;
68800;SDS011;55784;50.734;7.086;2023-09-08T00:09:23;10.80;;;5.40;;
68800;SDS011;55784;50.734;7.086;2023-09-08T00:11:48;10.43;;;5.50;;
68800;SDS011;55784;50.734;7.086;2023-09-08T00:14:13;10.77;;;5.07;;
68800;SDS011;55784;50.734;7.086;2023-09-08T00:16:39;10.30;;;5.33;;
68800;SDS011;55784;50.734;7.086;2023-09-08T00:19:07;12.75;;;5.60;;
68800;SDS011;55784;50.734;7.086;2023-09-08T00:21:33;11.13;;;5.30;;
68800;SDS011;55784;50.734;7.086;2023-09-08T00:23:58;10.77;;;5.10;;
68800;SDS011;55784;50.734;7.086;2023-09-08T00:26:25;11.80;;;5.28;;
68800;SDS011;55784;50.734;7.086;2023-09-08T00:28:51;10.67;;;5.00;;
68800;SDS011;55784;50.734;7.086;2023-09-08T00:31:16;11.30;;;5.10;;
68800;SDS011;55784;50.734;7.086;2023-09-08T00:33:41;10.47;;;5.63;;
68800;SDS011;55784;50.734;7.086;2023-09-08T00:36:09;10.50;;;5.35;;
68800;SDS011;55784;50.734;7.086;2023-09-08T00:38:34;10.50;;;5.20;;
68800;SDS011;55784;50.734;7.086;2023-09-08T00:40:59;9.43;;;5.23;;
68800;SDS011;55784;50.734;7.086;2023-09-08T00:43:25;10.37;;;5.30;;
68800;SDS011;55784;50.734;7.086;2023-09-08T00:45:51;11.70;;;5.43;;
68800;SDS011;55784;50.734;7.086;2023-09-08T00:48:18;11.80;;;5.47;;
68800;SDS011;55784;50.734;7.086;2023-09-08T00:50:43;10.55;;;5.55;;
68800;SDS011;55784;50.734;7.086;2023-09-08T00:53:10;10.40;;;5.20;;
68800;SDS011;55784;50.734;7.086;2023-09-08T00:55:35;11.90;;;5.57;;
68800;SDS011;55784;50.734;7.086;2023-09-08T00:58:01;12.63;;;6.30;;
68800;SDS011;55784;50.734;7.086;2023-09-08T01:00:27;12.90;;;6.75;;
68800;SDS011;55784;50.734;7.086;2023-09-08T01:02:53;11.25;;;6.03;;
68800;SDS011;55784;50.734;7.086;2023-09-08T01:05:19;10.87;;;5.47;;
68800;SDS011;55784;50.734;7.086;2023-09-08T01:07:45;11.13;;;5.80;;
68800;SDS011;55784;50.734;7.086;2023-09-08T01:10:13;11.52;;;5.63;;
68800;SDS011;55784;50.734;7.086;2023-09-08T01:12:39;11.20;;;5.93;;
68800;SDS011;55784;50.734;7.086;2023-09-08T01:15:05;11.10;;;5.60;;
68800;SDS011;55784;50.734;7.086;2023-09-08T01:17:31;10.93;;;6.03;;
68800;SDS011;55784;50.734;7.086;2023-09-08T01:19:56;10.90;;;5.53;;
68800;SDS011;55784;50.734;7.086;2023-09-08T01:25:09;11.30;;;5.67;;
68800;SDS011;55784;50.734;7.086;2023-09-08T01:27:41;10.80;;;5.75;;
68800;SDS011;55784;50.734;7.086;2023-09-08T01:30:10;12.10;;;5.90;;
68800;SDS011;55784;50.734;7.086;2023-09-08T01:32:38;10.82;;;5.72;;
68800;SDS011;55784;50.734;7.086;2023-09-08T01:35:05;11.23;;;5.45;;
68800;SDS011;55784;50.734;7.086;2023-09-08T01:37:31;10.50;;;5.43;;
68800;SDS011;55784;50.734;7.086;2023-09-08T01:39:57;10.23;;;5.50;;
68800;SDS011;55784;50.734;7.086;2023-09-08T01:42:22;11.87;;;5.60;;
68800;SDS011;55784;50.734;7.086;2023-09-08T01:44:47;10.70;;;5.70;;
68800;SDS011;55784;50.734;7.086;2023-09-08T01:47:13;11.10;;;5.20;;
68800;SDS011;55784;50.734;7.086;2023-09-08T01:49:38;11.60;;;5.77;;
68800;SDS011;55784;50.734;7.086;2023-09-08T01:52:03;10.97;;;5.67;;
68800;SDS011;55784;50.734;7.086;2023-09-08T01:54:29;11.57;;;5.90;;
68800;SDS011;55784;50.734;7.086;2023-09-08T01:56:58;10.77;;;5.80;;
68800;SDS011;55784;50.734;7.086;2023-09-08T01:59:23;11.20;;;5.88;;
68800;SDS011;55784;50.734;7.086;2023-09-08T02:01:48;13.57;;;5.80;;
68800;SDS011;55784;50.734;7.086;2023-09-08T02:04:14;10.97;;;5.80;;
68800;SDS011;55784;50.734;7.086;2023-09-08T02:06:42;11.35;;;5.80;;
68800;SDS011;55784;50.734;7.086;2023-09-08T02:09:08;11.53;;;5.90;;
68800;SDS011;55784;50.734;7.086;2023-09-08T02:11:36;13.35;;;5.72;;
68800;SDS011;55784;50.734;7.086;2023-09-08T02:14:02;11.37;;;5.83;;
68800;SDS011;55784;50.734;7.086;2023-09-08T02:16:28;12.25;;;6.10;;
68800;SDS011;55784;50.734;7.086;2023-09-08T02:18:53;11.57;;;5.87;;
68800;SDS011;55784;50.734;7.086;2023-09-08T02:21:18;10.93;;;5.97;;
68800;SDS011;55784;50.734;7.086;2023-09-08T02:23:44;12.43;;;5.90;;
68800;SDS011;55784;50.734;7.086;2023-09-08T02:26:09;11.83;;;5.93;;
68800;SDS011;55784;50.734;7.086;2023-09-08T02:28:35;12.43;;;6.05;;
68800;SDS011;55784;50.734;7.086;2023-09-08T02:31:01;12.97;;;6.17;;
68800;SDS011;55784;50.734;7.086;2023-09-08T02:33:26;11.90;;;6.37;;
68800;SDS011;55784;50.734;7.086;2023-09-08T02:35:51;12.47;;;5.97;;
68800;SDS011;55784;50.734;7.086;2023-09-08T02:38:17;14.37;;;6.77;;
68800;SDS011;55784;50.734;7.086;2023-09-08T02:40:42;12.27;;;6.23;;
68800;SDS011;55784;50.734;7.086;2023-09-08T02:43:08;12.52;;;6.40;;
68800;SDS011;55784;50.734;7.086;2023-09-08T02:45:33;11.57;;;6.63;;
68800;SDS011;55784;50.734;7.086;2023-09-08T02:47:59;11.65;;;5.90;;
68800;SDS011;55784;50.734;7.086;2023-09-08T02:50:24;11.43;;;6.23;;
68800;SDS011;55784;50.734;7.086;2023-09-08T02:52:50;11.50;;;6.20;;
68800;SDS011;55784;50.734;7.086;2023-09-08T02:55:15;13.30;;;6.57;;
68800;SDS011;55784;50.734;7.086;2023-09-08T02:57:40;12.50;;;6.40;;
68800;SDS011;55784;50.734;7.086;2023-09-08T03:00:06;12.27;;;6.70;;
68800;SDS011;55784;50.734;7.086;2023-09-08T03:02:34;12.07;;;6.25;;
68800;SDS011;55784;50.734;7.086;2023-09-08T03:05:00;12.47;;;6.50;;
68800;SDS011;55784;50.734;7.086;2023-09-08T03:07:26;13.25;;;6.32;;
68800;SDS011;55784;50.734;7.086;2023-09-08T03:09:55;13.55;;;6.68;;
68800;SDS011;55784;50.734;7.086;2023-09-08T03:12:20;12.07;;;6.55;;
68800;SDS011;55784;50.734;7.086;2023-09-08T03:14:45;14.60;;;6.80;;
68800;SDS011;55784;50.734;7.086;2023-09-08T03:17:11;11.87;;;6.50;;
68800;SDS011;55784;50.734;7.086;2023-09-08T03:19:37;13.30;;;6.35;;
68800;SDS011;55784;50.734;7.086;2023-09-08T03:22:03;12.53;;;6.73;;
68800;SDS011;55784;50.734;7.086;2023-09-08T03:24:28;10.87;;;5.90;;
68800;SDS011;55784;50.734;7.086;2023-09-08T03:26:53;12.30;;;6.40;;
68800;SDS011;55784;50.734;7.086;2023-09-08T03:29:19;12.37;;;6.77;;
68800;SDS011;55784;50.734;7.086;2023-09-08T03:31:44;11.57;;;6.13;;
68800;SDS011;55784;50.734;7.086;2023-09-08T03:34:10;11.30;;;6.27;;
68800;SDS011;55784;50.734;7.086;2023-09-08T03:36:35;13.20;;;7.27;;
68800;SDS011;55784;50.734;7.086;2023-09-08T03:39:03;11.70;;;6.28;;
68800;SDS011;55784;50.734;7.086;2023-09-08T03:41:28;12.93;;;6.20;;
68800;SDS011;55784;50.734;7.086;2023-09-08T03:43:54;12.80;;;7.03;;
68800;SDS011;55784;50.734;7.086;2023-09-08T03:46:19;12.27;;;6.75;;
68800;SDS011;55784;50.734;7.086;2023-09-08T03:48:44;13.60;;;6.67;;
68800;SDS011;55784;50.734;7.086;2023-09-08T03:51:10;13.73;;;6.30;;
68800;SDS011;55784;50.734;7.086;2023-09-08T03:53:35;12.67;;;6.70;;
68800;SDS011;55784;50.734;7.086;2023-09-08T03:56:00;12.57;;;6.30;;
68800;SDS011;55784;50.734;7.086;2023-09-08T03:58:26;13.43;;;6.77;;
68800;SDS011;55784;50.734;7.086;2023-09-08T04:00:51;12.38;;;6.63;;
68800;SDS011;55784;50.734;7.086;2023-09-08T04:03:16;13.33;;;6.70;;
68800;SDS011;55784;50.734;7.086;2023-09-08T04:05:42;12.77;;;7.10;;
68800;SDS011;55784;50.734;7.086;2023-09-08T04:08:07;12.70;;;6.60;;
68800;SDS011;55784;50.734;7.086;2023-09-08T04:10:32;12.90;;;7.30;;
68800;SDS011;55784;50.734;7.086;2023-09-08T04:12:58;12.23;;;6.60;;
68800;SDS011;55784;50.734;7.086;2023-09-08T04:15:23;13.00;;;7.10;;
68800;SDS011;55784;50.734;7.086;2023-09-08T04:17:49;15.53;;;7.10;;
68800;SDS011;55784;50.734;7.086;2023-09-08T04:20:14;14.00;;;6.93;;
68800;SDS011;55784;50.734;7.086;2023-09-08T04:22:40;14.07;;;7.47;;
68800;SDS011;55784;50.734;7.086;2023-09-08T04:25:05;14.00;;;7.55;;
68800;SDS011;55784;50.734;7.086;2023-09-08T04:27:31;12.50;;;6.83;;
68800;SDS011;55784;50.734;7.086;2023-09-08T04:29:57;14.10;;;6.68;;
68800;SDS011;55784;50.734;7.086;2023-09-08T04:32:22;15.27;;;7.00;;
68800;SDS011;55784;50.734;7.086;2023-09-08T04:34:48;12.97;;;6.80;;
68800;SDS011;55784;50.734;7.086;2023-09-08T04:37:14;14.15;;;6.85;;
68800;SDS011;55784;50.734;7.086;2023-09-08T04:39:39;13.90;;;6.60;;
68800;SDS011;55784;50.734;7.086;2023-09-08T04:42:05;11.80;;;6.80;;
68800;SDS011;55784;50.734;7.086;2023-09-08T04:44:30;14.70;;;7.93;;
68800;SDS011;55784;50.734;7.086;2023-09-08T04:46:56;15.13;;;7.00;;
68800;SDS011;55784;50.734;7.086;2023-09-08T04:49:21;13.00;;;7.00;;
68800;SDS011;55784;50.734;7.086;2023-09-08T04:51:46;13.57;;;7.07;;
68800;SDS011;55784;50.734;7.086;2023-09-08T04:54:11;13.77;;;7.03;;
68800;SDS011;55784;50.734;7.086;2023-09-08T04:56:38;14.00;;;7.17;;
68800;SDS011;55784;50.734;7.086;2023-09-08T04:59:04;15.70;;;7.40;;
68800;SDS011;55784;50.734;7.086;2023-09-08T05:01:30;14.60;;;7.20;;
68800;SDS011;55784;50.734;7.086;2023-09-08T05:03:57;14.00;;;7.85;;
68800;SDS011;55784;50.734;7.086;2023-09-08T05:06:23;15.35;;;8.93;;
68800;SDS011;55784;50.734;7.086;2023-09-08T05:08:48;14.17;;;7.20;;
68800;SDS011;55784;50.734;7.086;2023-09-08T05:11:14;17.33;;;9.38;;
68800;SDS011;55784;50.734;7.086;2023-09-08T05:13:39;16.47;;;7.60;;
68800;SDS011;55784;50.734;7.086;2023-09-08T05:16:05;16.43;;;7.20;;
68800;SDS011;55784;50.734;7.086;2023-09-08T05:18:39;13.70;;;7.20;;
68800;SDS011;55784;50.734;7.086;2023-09-08T05:21:05;13.47;;;7.00;;
68800;SDS011;55784;50.734;7.086;2023-09-08T05:23:33;14.13;;;7.30;;
68800;SDS011;55784;50.734;7.086;2023-09-08T05:25:59;14.57;;;6.70;;
68800;SDS011;55784;50.734;7.086;2023-09-08T05:28:25;13.75;;;6.80;;
68800;SDS011;55784;50.734;7.086;2023-09-08T05:30:51;18.37;;;7.57;;
68800;SDS011;55784;50.734;7.086;2023-09-08T05:33:16;14.38;;;6.85;;
68800;SDS011;55784;50.734;7.086;2023-09-08T05:35:42;17.57;;;7.50;;
68800;SDS011;55784;50.734;7.086;2023-09-08T05:38:07;15.75;;;7.20;;
68800;SDS011;55784;50.734;7.086;2023-09-08T05:40:34;14.23;;;6.60;;
68800;SDS011;55784;50.734;7.086;2023-09-08T05:42:59;14.38;;;6.55;;
68800;SDS011;55784;50.734;7.086;2023-09-08T05:45:25;15.73;;;7.00;;
68800;SDS011;55784;50.734;7.086;2023-09-08T05:47:50;14.50;;;7.00;;
68800;SDS011;55784;50.734;7.086;2023-09-08T05:50:16;14.30;;;6.70;;
68800;SDS011;55784;50.734;7.086;2023-09-08T05:52:42;13.35;;;6.30;;
68800;SDS011;55784;50.734;7.086;2023-09-08T05:55:08;15.67;;;7.40;;
68800;SDS011;55784;50.734;7.086;2023-09-08T05:57:33;14.67;;;7.67;;
68800;SDS011;55784;50.734;7.086;2023-09-08T05:59:59;14.23;;;7.00;;
68800;SDS011;55784;50.734;7.086;2023-09-08T06:02:25;13.87;;;7.00;;
68800;SDS011;55784;50.734;7.086;2023-09-08T06:04:50;15.87;;;6.80;;
68800;SDS011;55784;50.734;7.086;2023-09-08T06:07:15;14.53;;;7.03;;
68800;SDS011;55784;50.734;7.086;2023-09-08T06:09:41;13.30;;;7.03;;
68800;SDS011;55784;50.734;7.086;2023-09-08T06:12:06;14.48;;;6.47;;
68800;SDS011;55784;50.734;7.086;2023-09-08T06:14:31;38.17;;;10.90;;
68800;SDS011;55784;50.734;7.086;2023-09-08T06:16:57;21.53;;;7.87;;
68800;SDS011;55784;50.734;7.086;2023-09-08T06:19:22;16.37;;;7.00;;
68800;SDS011;55784;50.734;7.086;2023-09-08T06:21:47;50.90;;;12.90;;
68800;SDS011;55784;50.734;7.086;2023-09-08T06:24:13;18.50;;;7.20;;
68800;SDS011;55784;50.734;7.086;2023-09-08T06:26:38;38.47;;;10.97;;
68800;SDS011;55784;50.734;7.086;2023-09-08T06:29:03;14.10;;;6.40;;
68800;SDS011;55784;50.734;7.086;2023-09-08T06:31:28;12.23;;;5.87;;
68800;SDS011;55784;50.734;7.086;2023-09-08T06:33:54;11.70;;;5.67;;
68800;SDS011;55784;50.734;7.086;2023-09-08T06:36:19;12.63;;;5.43;;
68800;SDS011;55784;50.734;7.086;2023-09-08T06:38:45;11.43;;;5.70;;
68800;SDS011;55784;50.734;7.086;2023-09-08T06:41:10;10.67;;;5.40;;
68800;SDS011;55784;50.734;7.086;2023-09-08T06:43:36;12.07;;;5.45;;
68800;SDS011;55784;50.734;7.086;2023-09-08T06:46:02;12.38;;;5.70;;
68800;SDS011;55784;50.734;7.086;2023-09-08T06:48:27;9.83;;;5.30;;
68800;SDS011;55784;50.734;7.086;2023-09-08T06:50:54;11.43;;;5.40;;
68800;SDS011;55784;50.734;7.086;2023-09-08T06:53:21;10.63;;;5.40;;
68800;SDS011;55784;50.734;7.086;2023-09-08T06:55:49;17.75;;;6.95;;
68800;SDS011;55784;50.734;7.086;2023-09-08T06:58:14;13.30;;;4.97;;
68800;SDS011;55784;50.734;7.086;2023-09-08T07:00:40;11.63;;;5.10;;
68800;SDS011;55784;50.734;7.086;2023-09-08T07:03:06;11.25;;;5.05;;
68800;SDS011;55784;50.734;7.086;2023-09-08T07:05:33;9.95;;;4.97;;
68800;SDS011;55784;50.734;7.086;2023-09-08T07:07:59;10.90;;;4.73;;
68800;SDS011;55784;50.734;7.086;2023-09-08T07:10:24;11.37;;;5.03;;
68800;SDS011;55784;50.734;7.086;2023-09-08T07:12:49;10.27;;;5.40;;
68800;SDS011;55784;50.734;7.086;2023-09-08T07:15:15;10.13;;;4.87;;
68800;SDS011;55784;50.734;7.086;2023-09-08T07:17:40;9.67;;;4.80;;
68800;SDS011;55784;50.734;7.086;2023-09-08T07:20:06;11.63;;;4.90;;
68800;SDS011;55784;50.734;7.086;2023-09-08T07:22:32;12.38;;;4.68;;
68800;SDS011;55784;50.734;7.086;2023-09-08T07:24:58;9.90;;;5.20;;
68800;SDS011;55784;50.734;7.086;2023-09-08T07:27:23;8.17;;;4.40;;
68800;SDS011;55784;50.734;7.086;2023-09-08T07:29:48;9.37;;;4.40;;
68800;SDS011;55784;50.734;7.086;2023-09-08T07:32:14;8.95;;;4.60;;
68800;SDS011;55784;50.734;7.086;2023-09-08T07:34:40;10.50;;;4.47;;
68800;SDS011;55784;50.734;7.086;2023-09-08T07:37:05;10.17;;;4.10;;
68800;SDS011;55784;50.734;7.086;2023-09-08T07:39:31;8.50;;;4.03;;
68800;SDS011;55784;50.734;7.086;2023-09-08T07:41:57;11.07;;;4.60;;
68800;SDS011;55784;50.734;7.086;2023-09-08T07:44:23;9.88;;;4.10;;
68800;SDS011;55784;50.734;7.086;2023-09-08T07:46:48;9.60;;;4.40;;
68800;SDS011;55784;50.734;7.086;2023-09-08T07:49:16;7.82;;;3.80;;
68800;SDS011;55784;50.734;7.086;2023-09-08T07:51:44;8.48;;;4.15;;
68800;SDS011;55784;50.734;7.086;2023-09-08T07:54:09;9.17;;;4.50;;
68800;SDS011;55784;50.734;7.086;2023-09-08T07:56:35;14.00;;;5.00;;
68800;SDS011;55784;50.734;7.086;2023-09-08T07:59:00;9.30;;;4.33;;
68800;SDS011;55784;50.734;7.086;2023-09-08T08:01:25;8.47;;;3.90;;
68800;SDS011;55784;50.734;7.086;2023-09-08T08:03:51;11.83;;;4.80;;
68800;SDS011;55784;50.734;7.086;2023-09-08T08:06:16;7.93;;;4.17;;
68800;SDS011;55784;50.734;7.086;2023-09-08T08:08:42;8.27;;;3.90;;
68800;SDS011;55784;50.734;7.086;2023-09-08T08:11:11;10.07;;;4.20;;
68800;SDS011;55784;50.734;7.086;2023-09-08T08:13:37;10.48;;;4.00;;
68800;SDS011;55784;50.734;7.086;2023-09-08T08:16:03;8.93;;;3.93;;
68800;SDS011;55784;50.734;7.086;2023-09-08T08:18:28;10.52;;;4.47;;
68800;SDS011;55784;50.734;7.086;2023-09-08T08:20:53;8.43;;;4.00;;
68800;SDS011;55784;50.734;7.086;2023-09-08T08:23:19;8.67;;;3.80;;
68800;SDS011;55784;50.734;7.086;2023-09-08T08:25:44;8.60;;;4.20;;
68800;SDS011;55784;50.734;7.086;2023-09-08T08:28:09;9.37;;;4.10;;
68800;SDS011;55784;50.734;7.086;2023-09-08T08:30:35;10.53;;;4.70;;
68800;SDS011;55784;50.734;7.086;2023-09-08T08:33:00;9.63;;;4.60;;
68800;SDS011;55784;50.734;7.086;2023-09-08T08:35:26;8.40;;;4.28;;
68800;SDS011;55784;50.734;7.086;2023-09-08T08:37:51;8.13;;;4.40;;
68800;SDS011;55784;50.734;7.086;2023-09-08T08:40:17;8.15;;;4.10;;
68800;SDS011;55784;50.734;7.086;2023-09-08T08:42:43;8.80;;;4.30;;
68800;SDS011;55784;50.734;7.086;2023-09-08T08:45:09;8.55;;;3.95;;
68800;SDS011;55784;50.734;7.086;2023-09-08T08:47:35;9.77;;;4.90;;
68800;SDS011;55784;50.734;7.086;2023-09-08T08:50:00;9.67;;;4.33;;
68800;SDS011;55784;50.734;7.086;2023-09-08T08:52:27;9.15;;;4.22;;
68800;SDS011;55784;50.734;7.086;2023-09-08T08:54:53;9.50;;;4.23;;
68800;SDS011;55784;50.734;7.086;2023-09-08T08:57:19;9.85;;;4.20;;
68800;SDS011;55784;50.734;7.086;2023-09-08T08:59:46;8.48;;;3.90;;
68800;SDS011;55784;50.734;7.086;2023-09-08T09:02:13;8.55;;;4.28;;
68800;SDS011;55784;50.734;7.086;2023-09-08T09:04:39;7.78;;;4.35;;
68800;SDS011;55784;50.734;7.086;2023-09-08T09:07:05;8.43;;;4.57;;
68800;SDS011;55784;50.734;7.086;2023-09-08T09:09:31;11.70;;;4.78;;
68800;SDS011;55784;50.734;7.086;2023-09-08T09:11:57;9.97;;;4.50;;
68800;SDS011;55784;50.734;7.086;2023-09-08T09:14:22;8.68;;;4.50;;
68800;SDS011;55784;50.734;7.086;2023-09-08T09:16:48;11.50;;;4.23;;
68800;SDS011;55784;50.734;7.086;2023-09-08T09:19:18;8.98;;;4.20;;
68800;SDS011;55784;50.734;7.086;2023-09-08T09:21:50;9.68;;;4.50;;
68800;SDS011;55784;50.734;7.086;2023-09-08T09:24:35;8.60;;;4.03;;
68800;SDS011;55784;50.734;7.086;2023-09-08T09:27:10;8.77;;;3.83;;
68800;SDS011;55784;50.734;7.086;2023-09-08T09:29:46;10.07;;;4.20;;
68800;SDS011;55784;50.734;7.086;2023-09-08T09:32:13;8.40;;;4.40;;
68800;SDS011;55784;50.734;7.086;2023-09-08T09:34:49;10.13;;;4.45;;
68800;SDS011;55784;50.734;7.086;2023-09-08T09:37:16;8.00;;;4.10;;
68800;SDS011;55784;50.734;7.086;2023-09-08T09:39:41;8.13;;;3.92;;
68800;SDS011;55784;50.734;7.086;2023-09-08T09:42:07;7.23;;;4.10;;
68800;SDS011;55784;50.734;7.086;2023-09-08T09:44:32;8.40;;;4.30;;
68800;SDS011;55784;50.734;7.086;2023-09-08T09:46:57;8.03;;;3.93;;
68800;SDS011;55784;50.734;7.086;2023-09-08T09:49:25;7.30;;;3.92;;
68800;SDS011;55784;50.734;7.086;2023-09-08T09:51:56;11.18;;;4.53;;
68800;SDS011;55784;50.734;7.086;2023-09-08T09:54:23;9.23;;;4.40;;
68800;SDS011;55784;50.734;7.086;2023-09-08T09:56:48;9.00;;;4.20;;
68800;SDS011;55784;50.734;7.086;2023-09-08T09:59:13;9.00;;;4.57;;
68800;SDS011;55784;50.734;7.086;2023-09-08T10:01:40;13.27;;;7.03;;
68800;SDS011;55784;50.734;7.086;2023-09-08T10:04:06;18.13;;;10.03;;
68800;SDS011;55784;50.734;7.086;2023-09-08T10:06:32;9.95;;;5.20;;
68800;SDS011;55784;50.734;7.086;2023-09-08T10:09:02;9.00;;;4.50;;
68800;SDS011;55784;50.734;7.086;2023-09-08T10:11:38;10.43;;;4.77;;
68800;SDS011;55784;50.734;7.086;2023-09-08T10:14:07;10.93;;;5.90;;
68800;SDS011;55784;50.734;7.086;2023-09-08T10:16:36;9.77;;;5.45;;
68800;SDS011;55784;50.734;7.086;2023-09-08T10:19:04;10.05;;;5.85;;
68800;SDS011;55784;50.734;7.086;2023-09-08T10:21:33;10.30;;;4.72;;
68800;SDS011;55784;50.734;7.086;2023-09-08T10:24:07;9.50;;;5.17;;
68800;SDS011;55784;50.734;7.086;2023-09-08T10:26:39;8.80;;;4.65;;
68800;SDS011;55784;50.734;7.086;2023-09-08T10:29:07;8.77;;;4.70;;
68800;SDS011;55784;50.734;7.086;2023-09-08T10:31:34;10.90;;;6.15;;
68800;SDS011;55784;50.734;7.086;2023-09-08T10:34:00;9.52;;;4.78;;
68800;SDS011;55784;50.734;7.086;2023-09-08T10:36:27;9.67;;;5.13;;
68800;SDS011;55784;50.734;7.086;2023-09-08T10:38:52;9.30;;;4.47;;
68800;SDS011;55784;50.734;7.086;2023-09-08T10:43:54;9.32;;;4.65;;
68800;SDS011;55784;50.734;7.086;2023-09-08T10:46:28;9.13;;;4.30;;
68800;SDS011;55784;50.734;7.086;2023-09-08T10:49:00;9.38;;;4.78;;
68800;SDS011;55784;50.734;7.086;2023-09-08T10:51:28;9.38;;;4.15;;
68800;SDS011;55784;50.734;7.086;2023-09-08T10:53:54;9.93;;;5.10;;
68800;SDS011;55784;50.734;7.086;2023-09-08T10:56:19;8.90;;;4.70;;
68800;SDS011;55784;50.734;7.086;2023-09-08T10:58:48;9.23;;;4.73;;
68800;SDS011;55784;50.734;7.086;2023-09-08T11:01:19;10.27;;;4.68;;
68800;SDS011;55784;50.734;7.086;2023-09-08T11:03:52;12.85;;;6.72;;
68800;SDS011;55784;50.734;7.086;2023-09-08T11:06:19;21.92;;;11.07;;
68800;SDS011;55784;50.734;7.086;2023-09-08T11:08:47;12.63;;;6.55;;
68800;SDS011;55784;50.734;7.086;2023-09-08T11:11:14;13.60;;;7.90;;
68800;SDS011;55784;50.734;7.086;2023-09-08T11:13:40;17.30;;;8.98;;
68800;SDS011;55784;50.734;7.086;2023-09-08T11:16:06;17.00;;;6.70;;
68800;SDS011;55784;50.734;7.086;2023-09-08T11:18:32;20.58;;;10.80;;
68800;SDS011;55784;50.734;7.086;2023-09-08T11:20:59;16.20;;;8.17;;
68800;SDS011;55784;50.734;7.086;2023-09-08T11:23:27;13.35;;;6.68;;
68800;SDS011;55784;50.734;7.086;2023-09-08T11:25:52;11.13;;;5.32;;
68800;SDS011;55784;50.734;7.086;2023-09-08T11:28:18;10.30;;;5.00;;
68800;SDS011;55784;50.734;7.086;2023-09-08T11:30:46;10.30;;;5.45;;
68800;SDS011;55784;50.734;7.086;2023-09-08T11:33:15;11.15;;;6.18;;
68800;SDS011;55784;50.734;7.086;2023-09-08T11:35:42;10.93;;;5.27;;
68800;SDS011;55784;50.734;7.086;2023-09-08T11:38:11;10.35;;;5.35;;
68800;SDS011;55784;50.734;7.086;2023-09-08T11:40:36;9.77;;;5.68;;
68800;SDS011;55784;50.734;7.086;2023-09-08T11:43:03;11.73;;;6.40;;
68800;SDS011;55784;50.734;7.086;2023-09-08T11:45:30;10.38;;;4.95;;
68800;SDS011;55784;50.734;7.086;2023-09-08T11:47:56;10.37;;;5.90;;
68800;SDS011;55784;50.734;7.086;2023-09-08T11:50:22;10.52;;;5.80;;
68800;SDS011;55784;50.734;7.086;2023-09-08T11:52:49;15.07;;;7.00;;
68800;SDS011;55784;50.734;7.086;2023-09-08T11:55:16;10.27;;;5.45;;
68800;SDS011;55784;50.734;7.086;2023-09-08T11:57:42;14.82;;;6.97;;
68800;SDS011;55784;50.734;7.086;2023-09-08T12:00:10;19.07;;;11.80;;
68800;SDS011;55784;50.734;7.086;2023-09-08T12:02:41;11.05;;;5.10;;
68800;SDS011;55784;50.734;7.086;2023-09-08T12:05:10;9.00;;;4.67;;
68800;SDS011;55784;50.734;7.086;2023-09-08T12:07:37;7.85;;;4.63;;
68800;SDS011;55784;50.734;7.086;2023-09-08T12:10:12;10.23;;;5.05;;
68800;SDS011;55784;50.734;7.086;2023-09-08T12:17:59;11.65;;;6.40;;
68800;SDS011;55784;50.734;7.086;2023-09-08T12:20:35;8.13;;;5.18;;
68800;SDS011;55784;50.734;7.086;2023-09-08T12:23:03;8.68;;;5.05;;
68800;SDS011;55784;50.734;7.086;2023-09-08T12:25:30;8.33;;;4.70;;
68800;SDS011;55784;50.734;7.086;2023-09-08T12:28:00;10.07;;;4.88;;
68800;SDS011;55784;50.734;7.086;2023-09-08T12:30:26;9.40;;;4.50;;
68800;SDS011;55784;50.734;7.086;2023-09-08T12:32:57;8.98;;;4.45;;
68800;SDS011;55784;50.734;7.086;2023-09-08T12:35:24;8.38;;;4.43;;
68800;SDS011;55784;50.734;7.086;2023-09-08T12:37:53;10.03;;;4.70;;
68800;SDS011;55784;50.734;7.086;2023-09-08T12:40:21;10.07;;;4.68;;
68800;SDS011;55784;50.734;7.086;2023-09-08T12:42:47;10.50;;;5.37;;
68800;SDS011;55784;50.734;7.086;2023-09-08T12:45:12;8.70;;;5.00;;
68800;SDS011;55784;50.734;7.086;2023-09-08T12:47:38;8.52;;;4.50;;
68800;SDS011;55784;50.734;7.086;2023-09-08T12:50:04;8.63;;;4.70;;
68800;SDS011;55784;50.734;7.086;2023-09-08T12:52:29;8.03;;;4.77;;
68800;SDS011;55784;50.734;7.086;2023-09-08T12:54:56;9.85;;;4.88;;
68800;SDS011;55784;50.734;7.086;2023-09-08T12:57:22;9.37;;;5.00;;
68800;SDS011;55784;50.734;7.086;2023-09-08T12:59:47;10.07;;;5.07;;
68800;SDS011;55784;50.734;7.086;2023-09-08T13:02:12;8.93;;;5.10;;
68800;SDS011;55784;50.734;7.086;2023-09-08T13:04:38;8.10;;;4.53;;
68800;SDS011;55784;50.734;7.086;2023-09-08T13:07:04;7.30;;;4.40;;
68800;SDS011;55784;50.734;7.086;2023-09-08T13:09:29;8.80;;;4.60;;
68800;SDS011;55784;50.734;7.086;2023-09-08T13:11:54;8.30;;;4.60;;
68800;SDS011;55784;50.734;7.086;2023-09-08T13:14:19;8.20;;;5.00;;
68800;SDS011;55784;50.734;7.086;2023-09-08T13:16:45;8.63;;;4.80;;
68800;SDS011;55784;50.734;7.086;2023-09-08T13:19:10;9.30;;;4.80;;
68800;SDS011;55784;50.734;7.086;2023-09-08T13:21:36;9.82;;;4.70;;
68800;SDS011;55784;50.734;7.086;2023-09-08T13:24:05;7.70;;;4.60;;
68800;SDS011;55784;50.734;7.086;2023-09-08T13:26:31;10.40;;;5.35;;
68800;SDS011;55784;50.734;7.086;2023-09-08T13:28:57;9.40;;;5.03;;
68800;SDS011;55784;50.734;7.086;2023-09-08T13:31:22;17.40;;;10.93;;
68800;SDS011;55784;50.734;7.086;2023-09-08T13:33:47;10.50;;;5.70;;
68800;SDS011;55784;50.734;7.086;2023-09-08T13:36:13;13.00;;;7.70;;
68800;SDS011;55784;50.734;7.086;2023-09-08T13:38:38;14.05;;;8.18;;
68800;SDS011;55784;50.734;7.086;2023-09-08T13:41:03;16.70;;;9.87;;
68800;SDS011;55784;50.734;7.086;2023-09-08T13:43:29;8.90;;;5.00;;
68800;SDS011;55784;50.734;7.086;2023-09-08T13:45:54;8.20;;;4.90;;
68800;SDS011;55784;50.734;7.086;2023-09-08T13:48:20;8.00;;;4.93;;
68800;SDS011;55784;50.734;7.086;2023-09-08T13:50:45;8.30;;;5.03;;
68800;SDS011;55784;50.734;7.086;2023-09-08T13:53:11;9.00;;;4.80;;
68800;SDS011;55784;50.734;7.086;2023-09-08T13:55:36;8.50;;;4.80;;
68800;SDS011;55784;50.734;7.086;2023-09-08T13:58:01;9.07;;;5.30;;
68800;SDS011;55784;50.734;7.086;2023-09-08T14:00:27;10.45;;;5.05;;
68800;SDS011;55784;50.734;7.086;2023-09-08T14:02:52;9.43;;;4.83;;
68800;SDS011;55784;50.734;7.086;2023-09-08T14:05:17;8.37;;;4.73;;
68800;SDS011;55784;50.734;7.086;2023-09-08T14:07:44;9.30;;;4.88;;
68800;SDS011;55784;50.734;7.086;2023-09-08T14:10:09;10.23;;;5.20;;
68800;SDS011;55784;50.734;7.086;2023-09-08T14:12:34;9.57;;;5.10;;
68800;SDS011;55784;50.734;7.086;2023-09-08T14:15:00;10.07;;;4.90;;
68800;SDS011;55784;50.734;7.086;2023-09-08T14:17:25;9.70;;;5.10;;
68800;SDS011;55784;50.734;7.086;2023-09-08T14:19:51;9.23;;;5.17;;
68800;SDS011;55784;50.734;7.086;2023-09-08T14:22:19;11.82;;;6.93;;
68800;SDS011;55784;50.734;7.086;2023-09-08T14:24:44;9.67;;;5.80;;
68800;SDS011;55784;50.734;7.086;2023-09-08T14:27:09;9.73;;;5.97;;
68800;SDS011;55784;50.734;7.086;2023-09-08T14:29:37;8.52;;;5.05;;
68800;SDS011;55784;50.734;7.086;2023-09-08T14:32:03;10.93;;;5.10;;
68800;SDS011;55784;50.734;7.086;2023-09-08T14:34:28;8.97;;;5.00;;
68800;SDS011;55784;50.734;7.086;2023-09-08T14:36:57;8.67;;;5.00;;
68800;SDS011;55784;50.734;7.086;2023-09-08T14:39:22;9.43;;;5.40;;
68800;SDS011;55784;50.734;7.086;2023-09-08T14:41:48;9.10;;;5.07;;
68800;SDS011;55784;50.734;7.086;2023-09-08T14:44:15;8.65;;;4.78;;